aviador You're here:

KGCN Decoded Metar

GRAND CANYON in AZ, USA
Report Time2017-11-20 04:54:00
UTC Time2017-11-20 05:40:19
Flight Rules vfr VFR
WindCalm
Visibility9999 m
Phenomena:N/A
Clouds:N/A
Expected CloudBase > 4,800 ft AGL from Temp-Dew spread
CeilingNone
Temp-6°C (ISA -8)
Dew Point-18°C (38% RH)
AAT-9.5°C
QNH1023 hPa
Density Alt5,351 ft
Elevation6,614 ft
Report Wrong Elevation
Raw Report
KGCN 200454Z 00000KT 7SM CLR M06/M18 A3022 RMK AO2 SLP226
T10611183=

Extra information for KGCN:More info

Metar Taf Metar & Taf Last 4 Metars F.Rules Stats Wind Profile Meteogram Temp Stats Airport Information Weather charts Add Link Nearby VenuesMetar ALERT Operation Metar Decoded Social comments

AIRNAV info for KGCN